MLI weather

Quad City International Airport
Moline, Illinois, United States

Public forecast

Using degrees Fahrenheit for public forecast. Weather courtesy of forecast.io.

METAR (pilot weather report)

Retrieved 2019/04/18 21:52 UTC (41 minutes ago):

KMLI 182152Z 34012G20KT 10SM BKN031 OVC038 11/03 A2977 RMK AO2 PK WND 33026/2141 SLP082 T01060028

TAF (pilot weather forecast)

Retrieved 2019/04/18 18:34 UTC (4 hours ago):

TAF KMLI 181732Z 1818/1918 32017G25KT P6SM OVC025 FM190000 35014G22KT P6SM BKN035 FM190400 36012KT P6SM FEW050